sensor_id;sensor_type;location;lat;lon;timestamp;P1;durP1;ratioP1;P2;durP2;ratioP2
67597;SDS011;62026;39.230;9.122;2023-02-28T00:01:28;7.55;;;0.90;;
67597;SDS011;62026;39.230;9.122;2023-02-28T00:03:55;4.07;;;0.98;;
67597;SDS011;62026;39.230;9.122;2023-02-28T00:06:21;3.80;;;0.80;;
67597;SDS011;62026;39.230;9.122;2023-02-28T00:08:49;8.45;;;1.20;;
67597;SDS011;62026;39.230;9.122;2023-02-28T00:11:16;6.25;;;0.95;;
67597;SDS011;62026;39.230;9.122;2023-02-28T00:13:43;5.10;;;0.88;;
67597;SDS011;62026;39.230;9.122;2023-02-28T00:16:13;8.95;;;1.08;;
67597;SDS011;62026;39.230;9.122;2023-02-28T00:18:44;4.20;;;1.42;;
67597;SDS011;62026;39.230;9.122;2023-02-28T00:21:12;3.25;;;1.52;;
67597;SDS011;62026;39.230;9.122;2023-02-28T00:23:39;5.45;;;1.70;;
67597;SDS011;62026;39.230;9.122;2023-02-28T00:26:05;6.25;;;1.88;;
67597;SDS011;62026;39.230;9.122;2023-02-28T00:28:31;3.33;;;1.80;;
67597;SDS011;62026;39.230;9.122;2023-02-28T00:30:58;4.22;;;1.60;;
67597;SDS011;62026;39.230;9.122;2023-02-28T00:33:25;6.38;;;1.65;;
67597;SDS011;62026;39.230;9.122;2023-02-28T00:36:01;4.10;;;1.42;;
67597;SDS011;62026;39.230;9.122;2023-02-28T00:38:35;8.65;;;1.58;;
67597;SDS011;62026;39.230;9.122;2023-02-28T00:41:02;6.72;;;1.50;;
67597;SDS011;62026;39.230;9.122;2023-02-28T00:43:30;7.43;;;1.15;;
67597;SDS011;62026;39.230;9.122;2023-02-28T00:45:58;3.97;;;1.10;;
67597;SDS011;62026;39.230;9.122;2023-02-28T00:48:24;3.53;;;1.20;;
67597;SDS011;62026;39.230;9.122;2023-02-28T00:50:50;5.20;;;0.82;;
67597;SDS011;62026;39.230;9.122;2023-02-28T00:53:16;5.50;;;0.93;;
67597;SDS011;62026;39.230;9.122;2023-02-28T00:55:42;7.40;;;0.95;;
67597;SDS011;62026;39.230;9.122;2023-02-28T00:58:09;4.22;;;0.90;;
67597;SDS011;62026;39.230;9.122;2023-02-28T01:00:35;4.45;;;1.13;;
67597;SDS011;62026;39.230;9.122;2023-02-28T01:03:01;2.55;;;0.90;;
67597;SDS011;62026;39.230;9.122;2023-02-28T01:05:28;2.70;;;0.60;;
67597;SDS011;62026;39.230;9.122;2023-02-28T01:07:54;1.00;;;0.52;;
67597;SDS011;62026;39.230;9.122;2023-02-28T01:10:20;5.15;;;0.70;;
67597;SDS011;62026;39.230;9.122;2023-02-28T01:12:46;0.85;;;0.50;;
67597;SDS011;62026;39.230;9.122;2023-02-28T01:15:14;3.58;;;0.77;;
67597;SDS011;62026;39.230;9.122;2023-02-28T01:17:40;1.05;;;0.40;;
67597;SDS011;62026;39.230;9.122;2023-02-28T01:20:07;1.85;;;0.40;;
67597;SDS011;62026;39.230;9.122;2023-02-28T01:22:35;0.98;;;0.60;;
67597;SDS011;62026;39.230;9.122;2023-02-28T01:25:00;1.23;;;0.45;;
67597;SDS011;62026;39.230;9.122;2023-02-28T01:27:26;1.60;;;0.50;;
67597;SDS011;62026;39.230;9.122;2023-02-28T01:29:54;2.60;;;0.50;;
67597;SDS011;62026;39.230;9.122;2023-02-28T01:32:20;0.90;;;0.45;;
67597;SDS011;62026;39.230;9.122;2023-02-28T01:34:46;1.13;;;0.60;;
67597;SDS011;62026;39.230;9.122;2023-02-28T01:37:12;3.05;;;0.47;;
67597;SDS011;62026;39.230;9.122;2023-02-28T01:39:42;1.85;;;0.90;;
67597;SDS011;62026;39.230;9.122;2023-02-28T01:42:09;1.40;;;0.80;;
67597;SDS011;62026;39.230;9.122;2023-02-28T01:47:46;1.92;;;0.55;;
67597;SDS011;62026;39.230;9.122;2023-02-28T01:50:21;0.82;;;0.40;;
67597;SDS011;62026;39.230;9.122;2023-02-28T01:52:53;1.15;;;0.50;;
67597;SDS011;62026;39.230;9.122;2023-02-28T01:55:25;1.35;;;0.82;;
67597;SDS011;62026;39.230;9.122;2023-02-28T01:57:57;2.92;;;0.75;;
67597;SDS011;62026;39.230;9.122;2023-02-28T02:00:27;1.58;;;0.77;;
67597;SDS011;62026;39.230;9.122;2023-02-28T02:02:56;1.52;;;0.70;;
67597;SDS011;62026;39.230;9.122;2023-02-28T02:05:27;1.20;;;0.73;;
67597;SDS011;62026;39.230;9.122;2023-02-28T02:08:04;1.23;;;0.70;;
67597;SDS011;62026;39.230;9.122;2023-02-28T02:16:35;1.90;;;0.40;;
67597;SDS011;62026;39.230;9.122;2023-02-28T02:28:41;0.88;;;0.50;;
67597;SDS011;62026;39.230;9.122;2023-02-28T02:42:16;0.30;;;0.30;;
67597;SDS011;62026;39.230;9.122;2023-02-28T02:45:17;0.90;;;0.35;;
67597;SDS011;62026;39.230;9.122;2023-02-28T02:47:53;0.73;;;0.30;;
67597;SDS011;62026;39.230;9.122;2023-02-28T02:50:25;1.33;;;0.50;;
67597;SDS011;62026;39.230;9.122;2023-02-28T02:53:02;0.93;;;0.32;;
67597;SDS011;62026;39.230;9.122;2023-02-28T02:55:33;1.00;;;0.30;;
67597;SDS011;62026;39.230;9.122;2023-02-28T02:58:06;1.65;;;0.35;;
67597;SDS011;62026;39.230;9.122;2023-02-28T03:00:42;0.63;;;0.32;;
67597;SDS011;62026;39.230;9.122;2023-02-28T03:03:14;1.02;;;0.40;;
67597;SDS011;62026;39.230;9.122;2023-02-28T03:05:46;0.97;;;0.47;;
67597;SDS011;62026;39.230;9.122;2023-02-28T03:08:15;0.63;;;0.35;;
67597;SDS011;62026;39.230;9.122;2023-02-28T03:10:42;1.88;;;0.52;;
67597;SDS011;62026;39.230;9.122;2023-02-28T03:13:37;2.35;;;0.40;;
67597;SDS011;62026;39.230;9.122;2023-02-28T03:16:25;1.45;;;0.60;;
67597;SDS011;62026;39.230;9.122;2023-02-28T03:19:51;4.32;;;0.60;;
67597;SDS011;62026;39.230;9.122;2023-02-28T03:25:37;6.00;;;0.60;;
67597;SDS011;62026;39.230;9.122;2023-02-28T03:36:37;2.95;;;0.60;;
67597;SDS011;62026;39.230;9.122;2023-02-28T03:39:13;1.83;;;0.57;;
67597;SDS011;62026;39.230;9.122;2023-02-28T03:42:06;2.80;;;0.50;;
67597;SDS011;62026;39.230;9.122;2023-02-28T03:44:49;4.70;;;0.73;;
67597;SDS011;62026;39.230;9.122;2023-02-28T03:47:23;3.38;;;0.80;;
67597;SDS011;62026;39.230;9.122;2023-02-28T03:49:58;2.72;;;0.70;;
67597;SDS011;62026;39.230;9.122;2023-02-28T03:52:38;1.13;;;0.57;;
67597;SDS011;62026;39.230;9.122;2023-02-28T03:55:26;1.83;;;0.70;;
67597;SDS011;62026;39.230;9.122;2023-02-28T03:58:07;2.25;;;0.70;;
67597;SDS011;62026;39.230;9.122;2023-02-28T04:01:04;1.98;;;0.65;;
67597;SDS011;62026;39.230;9.122;2023-02-28T04:03:40;4.80;;;0.80;;
67597;SDS011;62026;39.230;9.122;2023-02-28T04:06:07;3.28;;;0.80;;
67597;SDS011;62026;39.230;9.122;2023-02-28T04:08:41;1.77;;;0.57;;
67597;SDS011;62026;39.230;9.122;2023-02-28T04:11:14;2.75;;;0.60;;
67597;SDS011;62026;39.230;9.122;2023-02-28T04:13:53;6.57;;;0.75;;
67597;SDS011;62026;39.230;9.122;2023-02-28T04:16:19;4.50;;;1.08;;
67597;SDS011;62026;39.230;9.122;2023-02-28T04:18:45;2.15;;;0.60;;
67597;SDS011;62026;39.230;9.122;2023-02-28T04:21:11;7.70;;;1.10;;
67597;SDS011;62026;39.230;9.122;2023-02-28T04:23:38;3.05;;;0.73;;
67597;SDS011;62026;39.230;9.122;2023-02-28T04:26:04;1.48;;;0.70;;
67597;SDS011;62026;39.230;9.122;2023-02-28T04:28:31;1.75;;;0.70;;
67597;SDS011;62026;39.230;9.122;2023-02-28T04:30:59;5.88;;;0.82;;
67597;SDS011;62026;39.230;9.122;2023-02-28T04:33:31;4.40;;;1.00;;
67597;SDS011;62026;39.230;9.122;2023-02-28T04:36:01;2.53;;;0.70;;
67597;SDS011;62026;39.230;9.122;2023-02-28T04:38:37;2.55;;;0.80;;
67597;SDS011;62026;39.230;9.122;2023-02-28T04:41:04;4.53;;;0.73;;
67597;SDS011;62026;39.230;9.122;2023-02-28T04:43:31;6.28;;;0.65;;
67597;SDS011;62026;39.230;9.122;2023-02-28T04:45:58;4.38;;;0.88;;
67597;SDS011;62026;39.230;9.122;2023-02-28T04:48:28;4.18;;;0.80;;
67597;SDS011;62026;39.230;9.122;2023-02-28T04:51:03;4.95;;;1.00;;
67597;SDS011;62026;39.230;9.122;2023-02-28T04:53:37;4.78;;;0.95;;
67597;SDS011;62026;39.230;9.122;2023-02-28T04:56:06;5.22;;;0.88;;
67597;SDS011;62026;39.230;9.122;2023-02-28T04:58:33;2.47;;;0.82;;
67597;SDS011;62026;39.230;9.122;2023-02-28T05:01:04;3.33;;;1.00;;
67597;SDS011;62026;39.230;9.122;2023-02-28T05:03:55;4.60;;;0.90;;
67597;SDS011;62026;39.230;9.122;2023-02-28T05:06:25;5.15;;;1.40;;
67597;SDS011;62026;39.230;9.122;2023-02-28T05:08:53;6.22;;;1.10;;
67597;SDS011;62026;39.230;9.122;2023-02-28T05:11:29;3.67;;;1.05;;
67597;SDS011;62026;39.230;9.122;2023-02-28T05:14:04;2.42;;;0.93;;
67597;SDS011;62026;39.230;9.122;2023-02-28T05:16:40;4.13;;;0.80;;
67597;SDS011;62026;39.230;9.122;2023-02-28T05:19:06;5.63;;;1.10;;
67597;SDS011;62026;39.230;9.122;2023-02-28T05:21:36;3.63;;;0.70;;
67597;SDS011;62026;39.230;9.122;2023-02-28T05:24:14;2.47;;;0.80;;
67597;SDS011;62026;39.230;9.122;2023-02-28T05:26:48;3.28;;;0.73;;
67597;SDS011;62026;39.230;9.122;2023-02-28T05:29:17;3.03;;;0.77;;
67597;SDS011;62026;39.230;9.122;2023-02-28T05:31:44;2.65;;;0.80;;
67597;SDS011;62026;39.230;9.122;2023-02-28T05:34:10;2.63;;;0.95;;
67597;SDS011;62026;39.230;9.122;2023-02-28T05:36:37;2.90;;;0.90;;
67597;SDS011;62026;39.230;9.122;2023-02-28T05:39:07;5.05;;;1.38;;
67597;SDS011;62026;39.230;9.122;2023-02-28T05:41:38;4.20;;;1.00;;
67597;SDS011;62026;39.230;9.122;2023-02-28T05:44:08;2.08;;;1.00;;
67597;SDS011;62026;39.230;9.122;2023-02-28T05:46:34;3.05;;;1.10;;
67597;SDS011;62026;39.230;9.122;2023-02-28T05:49:00;3.00;;;0.98;;
67597;SDS011;62026;39.230;9.122;2023-02-28T05:51:27;3.65;;;1.23;;
67597;SDS011;62026;39.230;9.122;2023-02-28T05:53:53;3.53;;;1.30;;
67597;SDS011;62026;39.230;9.122;2023-02-28T05:56:19;3.17;;;0.90;;
67597;SDS011;62026;39.230;9.122;2023-02-28T05:58:46;4.95;;;0.90;;
67597;SDS011;62026;39.230;9.122;2023-02-28T06:04:16;4.68;;;1.10;;
67597;SDS011;62026;39.230;9.122;2023-02-28T06:06:45;2.90;;;0.80;;
67597;SDS011;62026;39.230;9.122;2023-02-28T06:09:13;4.95;;;1.00;;
67597;SDS011;62026;39.230;9.122;2023-02-28T06:11:40;4.10;;;1.27;;
67597;SDS011;62026;39.230;9.122;2023-02-28T06:14:07;5.35;;;1.10;;
67597;SDS011;62026;39.230;9.122;2023-02-28T06:16:40;5.07;;;1.45;;
67597;SDS011;62026;39.230;9.122;2023-02-28T06:19:06;3.30;;;1.27;;
67597;SDS011;62026;39.230;9.122;2023-02-28T06:21:34;3.90;;;1.00;;
67597;SDS011;62026;39.230;9.122;2023-02-28T06:24:01;3.03;;;1.00;;
67597;SDS011;62026;39.230;9.122;2023-02-28T06:26:28;1.73;;;0.93;;
67597;SDS011;62026;39.230;9.122;2023-02-28T06:28:54;2.85;;;0.90;;
67597;SDS011;62026;39.230;9.122;2023-02-28T06:31:20;5.22;;;0.93;;
67597;SDS011;62026;39.230;9.122;2023-02-28T06:33:48;2.13;;;0.70;;
67597;SDS011;62026;39.230;9.122;2023-02-28T06:36:15;2.50;;;0.98;;
67597;SDS011;62026;39.230;9.122;2023-02-28T06:38:42;3.13;;;1.00;;
67597;SDS011;62026;39.230;9.122;2023-02-28T06:41:09;1.50;;;0.75;;
67597;SDS011;62026;39.230;9.122;2023-02-28T06:43:37;3.38;;;1.00;;
67597;SDS011;62026;39.230;9.122;2023-02-28T06:46:07;2.13;;;1.02;;
67597;SDS011;62026;39.230;9.122;2023-02-28T06:48:38;3.40;;;0.93;;
67597;SDS011;62026;39.230;9.122;2023-02-28T06:51:06;3.35;;;1.25;;
67597;SDS011;62026;39.230;9.122;2023-02-28T06:53:42;1.77;;;0.80;;
67597;SDS011;62026;39.230;9.122;2023-02-28T06:56:10;3.30;;;1.23;;
67597;SDS011;62026;39.230;9.122;2023-02-28T06:58:39;3.20;;;1.10;;
67597;SDS011;62026;39.230;9.122;2023-02-28T07:01:06;1.73;;;1.00;;
67597;SDS011;62026;39.230;9.122;2023-02-28T07:03:34;2.55;;;1.00;;
67597;SDS011;62026;39.230;9.122;2023-02-28T07:06:01;3.20;;;1.20;;
67597;SDS011;62026;39.230;9.122;2023-02-28T07:08:29;2.58;;;1.08;;
67597;SDS011;62026;39.230;9.122;2023-02-28T07:10:56;3.88;;;1.08;;
67597;SDS011;62026;39.230;9.122;2023-02-28T07:13:23;1.45;;;0.90;;
67597;SDS011;62026;39.230;9.122;2023-02-28T07:15:56;2.63;;;1.10;;
67597;SDS011;62026;39.230;9.122;2023-02-28T07:18:25;2.25;;;1.13;;
67597;SDS011;62026;39.230;9.122;2023-02-28T07:20:52;2.80;;;1.13;;
67597;SDS011;62026;39.230;9.122;2023-02-28T07:23:18;3.67;;;1.70;;
67597;SDS011;62026;39.230;9.122;2023-02-28T07:25:45;3.50;;;1.85;;
67597;SDS011;62026;39.230;9.122;2023-02-28T07:28:12;7.68;;;2.03;;
67597;SDS011;62026;39.230;9.122;2023-02-28T07:30:39;6.00;;;2.03;;
67597;SDS011;62026;39.230;9.122;2023-02-28T07:33:06;4.43;;;1.77;;
67597;SDS011;62026;39.230;9.122;2023-02-28T07:35:32;3.28;;;1.70;;
67597;SDS011;62026;39.230;9.122;2023-02-28T07:37:58;9.50;;;2.22;;
67597;SDS011;62026;39.230;9.122;2023-02-28T07:40:25;3.00;;;1.70;;
67597;SDS011;62026;39.230;9.122;2023-02-28T07:42:52;5.50;;;2.00;;
67597;SDS011;62026;39.230;9.122;2023-02-28T07:45:18;3.03;;;1.58;;
67597;SDS011;62026;39.230;9.122;2023-02-28T07:47:44;5.00;;;1.70;;
67597;SDS011;62026;39.230;9.122;2023-02-28T07:50:12;3.97;;;1.75;;
67597;SDS011;62026;39.230;9.122;2023-02-28T07:52:41;4.90;;;2.00;;
67597;SDS011;62026;39.230;9.122;2023-02-28T07:55:08;2.10;;;1.27;;
67597;SDS011;62026;39.230;9.122;2023-02-28T07:57:35;5.93;;;1.80;;
67597;SDS011;62026;39.230;9.122;2023-02-28T08:00:05;3.95;;;1.77;;
67597;SDS011;62026;39.230;9.122;2023-02-28T08:02:39;2.83;;;1.48;;
67597;SDS011;62026;39.230;9.122;2023-02-28T08:05:05;4.55;;;1.65;;
67597;SDS011;62026;39.230;9.122;2023-02-28T08:07:33;6.40;;;1.83;;
67597;SDS011;62026;39.230;9.122;2023-02-28T08:09:59;5.18;;;2.05;;
67597;SDS011;62026;39.230;9.122;2023-02-28T08:12:25;10.73;;;1.67;;
67597;SDS011;62026;39.230;9.122;2023-02-28T08:14:51;3.60;;;1.30;;
67597;SDS011;62026;39.230;9.122;2023-02-28T08:17:17;4.82;;;1.50;;
67597;SDS011;62026;39.230;9.122;2023-02-28T08:19:46;4.00;;;1.58;;
67597;SDS011;62026;39.230;9.122;2023-02-28T08:22:12;3.60;;;1.30;;
67597;SDS011;62026;39.230;9.122;2023-02-28T08:24:40;2.28;;;1.08;;
67597;SDS011;62026;39.230;9.122;2023-02-28T08:27:08;2.38;;;1.00;;
67597;SDS011;62026;39.230;9.122;2023-02-28T08:29:38;2.53;;;0.88;;
67597;SDS011;62026;39.230;9.122;2023-02-28T08:32:05;5.97;;;2.15;;
67597;SDS011;62026;39.230;9.122;2023-02-28T08:34:32;3.92;;;1.42;;
67597;SDS011;62026;39.230;9.122;2023-02-28T08:36:58;3.47;;;1.80;;
67597;SDS011;62026;39.230;9.122;2023-02-28T08:39:24;2.53;;;1.30;;
67597;SDS011;62026;39.230;9.122;2023-02-28T08:41:50;1.77;;;1.10;;
67597;SDS011;62026;39.230;9.122;2023-02-28T08:44:16;2.72;;;1.42;;
67597;SDS011;62026;39.230;9.122;2023-02-28T08:46:42;4.47;;;1.63;;
67597;SDS011;62026;39.230;9.122;2023-02-28T08:49:09;3.63;;;1.80;;
67597;SDS011;62026;39.230;9.122;2023-02-28T08:51:36;5.43;;;1.98;;
67597;SDS011;62026;39.230;9.122;2023-02-28T08:54:03;5.25;;;2.25;;
67597;SDS011;62026;39.230;9.122;2023-02-28T08:56:29;4.47;;;2.20;;
67597;SDS011;62026;39.230;9.122;2023-02-28T08:58:56;6.10;;;2.95;;
67597;SDS011;62026;39.230;9.122;2023-02-28T09:01:24;5.95;;;3.28;;
67597;SDS011;62026;39.230;9.122;2023-02-28T09:03:53;6.65;;;3.70;;
67597;SDS011;62026;39.230;9.122;2023-02-28T09:06:21;7.65;;;4.10;;
67597;SDS011;62026;39.230;9.122;2023-02-28T09:08:49;7.97;;;3.42;;
67597;SDS011;62026;39.230;9.122;2023-02-28T09:11:16;5.22;;;3.17;;
67597;SDS011;62026;39.230;9.122;2023-02-28T09:13:44;6.85;;;3.22;;
67597;SDS011;62026;39.230;9.122;2023-02-28T09:16:12;4.82;;;3.00;;
67597;SDS011;62026;39.230;9.122;2023-02-28T09:18:41;7.45;;;3.58;;
67597;SDS011;62026;39.230;9.122;2023-02-28T09:21:08;8.13;;;2.60;;
67597;SDS011;62026;39.230;9.122;2023-02-28T09:23:42;4.53;;;2.45;;
67597;SDS011;62026;39.230;9.122;2023-02-28T09:26:14;6.45;;;2.85;;
67597;SDS011;62026;39.230;9.122;2023-02-28T09:28:44;4.22;;;2.00;;
67597;SDS011;62026;39.230;9.122;2023-02-28T09:31:16;5.55;;;2.00;;
67597;SDS011;62026;39.230;9.122;2023-02-28T09:33:49;2.28;;;1.67;;
67597;SDS011;62026;39.230;9.122;2023-02-28T09:38:45;3.30;;;1.60;;
67597;SDS011;62026;39.230;9.122;2023-02-28T09:41:37;2.50;;;1.55;;
67597;SDS011;62026;39.230;9.122;2023-02-28T09:44:18;2.72;;;1.70;;
67597;SDS011;62026;39.230;9.122;2023-02-28T09:47:14;4.47;;;1.90;;
67597;SDS011;62026;39.230;9.122;2023-02-28T09:49:54;5.32;;;1.98;;
67597;SDS011;62026;39.230;9.122;2023-02-28T09:52:28;3.47;;;1.87;;
67597;SDS011;62026;39.230;9.122;2023-02-28T09:55:00;4.32;;;2.00;;
67597;SDS011;62026;39.230;9.122;2023-02-28T09:57:40;3.75;;;1.90;;
67597;SDS011;62026;39.230;9.122;2023-02-28T10:03:23;5.18;;;2.33;;
67597;SDS011;62026;39.230;9.122;2023-02-28T10:06:07;5.85;;;2.50;;
67597;SDS011;62026;39.230;9.122;2023-02-28T10:11:24;5.45;;;2.60;;
67597;SDS011;62026;39.230;9.122;2023-02-28T10:25:22;5.22;;;2.60;;
67597;SDS011;62026;39.230;9.122;2023-02-28T10:28:07;6.38;;;2.53;;
67597;SDS011;62026;39.230;9.122;2023-02-28T10:30:43;7.97;;;3.13;;
67597;SDS011;62026;39.230;9.122;2023-02-28T10:33:17;6.85;;;3.10;;
67597;SDS011;62026;39.230;9.122;2023-02-28T10:35:56;5.53;;;2.50;;
67597;SDS011;62026;39.230;9.122;2023-02-28T10:38:24;5.35;;;2.17;;
67597;SDS011;62026;39.230;9.122;2023-02-28T10:41:09;4.88;;;2.00;;
67597;SDS011;62026;39.230;9.122;2023-02-28T10:43:39;6.38;;;2.45;;
67597;SDS011;62026;39.230;9.122;2023-02-28T10:48:34;6.22;;;2.17;;
67597;SDS011;62026;39.230;9.122;2023-02-28T10:51:13;5.03;;;2.42;;
67597;SDS011;62026;39.230;9.122;2023-02-28T10:58:54;4.53;;;2.17;;
67597;SDS011;62026;39.230;9.122;2023-02-28T11:09:28;8.05;;;2.60;;
67597;SDS011;62026;39.230;9.122;2023-02-28T11:12:16;5.93;;;1.70;;
67597;SDS011;62026;39.230;9.122;2023-02-28T11:20:53;5.72;;;2.45;;
67597;SDS011;62026;39.230;9.122;2023-02-28T11:23:21;4.50;;;1.30;;
67597;SDS011;62026;39.230;9.122;2023-02-28T11:25:54;3.58;;;1.08;;
67597;SDS011;62026;39.230;9.122;2023-02-28T11:33:37;9.93;;;2.00;;
67597;SDS011;62026;39.230;9.122;2023-02-28T11:36:13;8.55;;;1.40;;
67597;SDS011;62026;39.230;9.122;2023-02-28T11:38:41;3.35;;;1.50;;
67597;SDS011;62026;39.230;9.122;2023-02-28T11:46:52;7.30;;;1.20;;
67597;SDS011;62026;39.230;9.122;2023-02-28T11:55:45;6.38;;;1.40;;
67597;SDS011;62026;39.230;9.122;2023-02-28T12:11:55;5.40;;;1.00;;
67597;SDS011;62026;39.230;9.122;2023-02-28T12:20:32;5.40;;;1.00;;
67597;SDS011;62026;39.230;9.122;2023-02-28T12:26:28;3.05;;;1.38;;
67597;SDS011;62026;39.230;9.122;2023-02-28T12:32:32;4.40;;;1.35;;
67597;SDS011;62026;39.230;9.122;2023-02-28T12:35:14;6.75;;;1.38;;
67597;SDS011;62026;39.230;9.122;2023-02-28T12:37:50;4.32;;;1.52;;
67597;SDS011;62026;39.230;9.122;2023-02-28T12:40:33;7.75;;;1.45;;
67597;SDS011;62026;39.230;9.122;2023-02-28T12:43:12;3.47;;;1.40;;
67597;SDS011;62026;39.230;9.122;2023-02-28T12:48:24;8.27;;;2.00;;
67597;SDS011;62026;39.230;9.122;2023-02-28T12:51:02;7.63;;;1.30;;
67597;SDS011;62026;39.230;9.122;2023-02-28T13:10:44;4.43;;;1.17;;
67597;SDS011;62026;39.230;9.122;2023-02-28T13:13:16;7.53;;;1.25;;
67597;SDS011;62026;39.230;9.122;2023-02-28T13:16:07;6.00;;;1.30;;
67597;SDS011;62026;39.230;9.122;2023-02-28T13:18:39;8.05;;;1.40;;
67597;SDS011;62026;39.230;9.122;2023-02-28T13:21:23;4.68;;;1.23;;
67597;SDS011;62026;39.230;9.122;2023-02-28T13:34:33;4.32;;;1.00;;
67597;SDS011;62026;39.230;9.122;2023-02-28T13:39:47;7.72;;;0.90;;
67597;SDS011;62026;39.230;9.122;2023-02-28T13:47:42;3.97;;;1.20;;
67597;SDS011;62026;39.230;9.122;2023-02-28T13:50:41;2.80;;;0.80;;
67597;SDS011;62026;39.230;9.122;2023-02-28T13:58:50;3.03;;;0.80;;
67597;SDS011;62026;39.230;9.122;2023-02-28T14:07:22;5.60;;;0.70;;
67597;SDS011;62026;39.230;9.122;2023-02-28T14:10:06;1.42;;;0.60;;
67597;SDS011;62026;39.230;9.122;2023-02-28T14:12:51;3.65;;;0.68;;
67597;SDS011;62026;39.230;9.122;2023-02-28T14:18:04;3.90;;;0.50;;
67597;SDS011;62026;39.230;9.122;2023-02-28T14:20:47;1.05;;;0.50;;
67597;SDS011;62026;39.230;9.122;2023-02-28T14:26:32;4.10;;;0.50;;
67597;SDS011;62026;39.230;9.122;2023-02-28T14:32:58;8.23;;;0.82;;
67597;SDS011;62026;39.230;9.122;2023-02-28T14:35:39;2.40;;;1.08;;
67597;SDS011;62026;39.230;9.122;2023-02-28T14:38:31;2.40;;;0.70;;
67597;SDS011;62026;39.230;9.122;2023-02-28T14:41:06;7.55;;;1.00;;
67597;SDS011;62026;39.230;9.122;2023-02-28T14:43:53;5.32;;;0.90;;
67597;SDS011;62026;39.230;9.122;2023-02-28T14:46:30;4.47;;;0.68;;
67597;SDS011;62026;39.230;9.122;2023-02-28T14:49:05;2.25;;;0.80;;
67597;SDS011;62026;39.230;9.122;2023-02-28T14:51:38;3.30;;;1.00;;
67597;SDS011;62026;39.230;9.122;2023-02-28T14:54:04;6.15;;;0.93;;
67597;SDS011;62026;39.230;9.122;2023-02-28T14:56:37;2.67;;;0.90;;
67597;SDS011;62026;39.230;9.122;2023-02-28T14:59:05;3.85;;;0.80;;
67597;SDS011;62026;39.230;9.122;2023-02-28T15:01:49;2.05;;;1.10;;
67597;SDS011;62026;39.230;9.122;2023-02-28T15:04:21;2.67;;;1.00;;
67597;SDS011;62026;39.230;9.122;2023-02-28T15:07:10;4.15;;;0.90;;
67597;SDS011;62026;39.230;9.122;2023-02-28T15:09:40;7.18;;;2.83;;
67597;SDS011;62026;39.230;9.122;2023-02-28T15:12:06;5.40;;;1.52;;
67597;SDS011;62026;39.230;9.122;2023-02-28T15:14:33;5.82;;;1.52;;
67597;SDS011;62026;39.230;9.122;2023-02-28T15:17:06;2.60;;;1.20;;
67597;SDS011;62026;39.230;9.122;2023-02-28T15:19:41;2.50;;;1.55;;
67597;SDS011;62026;39.230;9.122;2023-02-28T15:22:14;5.45;;;2.15;;
67597;SDS011;62026;39.230;9.122;2023-02-28T15:24:49;5.53;;;2.30;;
67597;SDS011;62026;39.230;9.122;2023-02-28T15:27:21;5.57;;;2.30;;
67597;SDS011;62026;39.230;9.122;2023-02-28T15:29:56;4.25;;;2.30;;
67597;SDS011;62026;39.230;9.122;2023-02-28T15:32:29;7.97;;;2.65;;
67597;SDS011;62026;39.230;9.122;2023-02-28T15:34:59;11.45;;;3.92;;
67597;SDS011;62026;39.230;9.122;2023-02-28T15:38:03;9.73;;;4.93;;
67597;SDS011;62026;39.230;9.122;2023-02-28T15:40:52;11.98;;;5.70;;
67597;SDS011;62026;39.230;9.122;2023-02-28T15:45:50;10.77;;;5.50;;
67597;SDS011;62026;39.230;9.122;2023-02-28T15:56:27;9.63;;;5.20;;
67597;SDS011;62026;39.230;9.122;2023-02-28T15:59:02;11.75;;;5.97;;
67597;SDS011;62026;39.230;9.122;2023-02-28T16:01:34;11.82;;;6.05;;
67597;SDS011;62026;39.230;9.122;2023-02-28T16:04:03;10.27;;;5.35;;
67597;SDS011;62026;39.230;9.122;2023-02-28T16:09:12;9.10;;;5.13;;
67597;SDS011;62026;39.230;9.122;2023-02-28T16:11:47;10.77;;;5.30;;
67597;SDS011;62026;39.230;9.122;2023-02-28T16:14:19;12.30;;;5.97;;
67597;SDS011;62026;39.230;9.122;2023-02-28T16:16:53;11.07;;;4.38;;
67597;SDS011;62026;39.230;9.122;2023-02-28T16:19:27;7.72;;;3.72;;
67597;SDS011;62026;39.230;9.122;2023-02-28T16:21:53;11.63;;;4.22;;
67597;SDS011;62026;39.230;9.122;2023-02-28T16:24:19;5.57;;;4.07;;
67597;SDS011;62026;39.230;9.122;2023-02-28T16:26:45;14.02;;;7.45;;
67597;SDS011;62026;39.230;9.122;2023-02-28T16:29:19;14.00;;;5.93;;
67597;SDS011;62026;39.230;9.122;2023-02-28T16:31:55;13.65;;;5.97;;
67597;SDS011;62026;39.230;9.122;2023-02-28T16:34:21;7.43;;;4.45;;
67597;SDS011;62026;39.230;9.122;2023-02-28T16:36:49;9.73;;;4.10;;
67597;SDS011;62026;39.230;9.122;2023-02-28T16:39:15;7.03;;;4.30;;
67597;SDS011;62026;39.230;9.122;2023-02-28T16:41:42;8.32;;;4.45;;
67597;SDS011;62026;39.230;9.122;2023-02-28T16:44:17;8.88;;;4.45;;
67597;SDS011;62026;39.230;9.122;2023-02-28T16:46:55;6.90;;;4.53;;
67597;SDS011;62026;39.230;9.122;2023-02-28T16:49:21;7.32;;;3.92;;
67597;SDS011;62026;39.230;9.122;2023-02-28T16:51:47;8.80;;;3.90;;
67597;SDS011;62026;39.230;9.122;2023-02-28T16:54:13;6.35;;;3.72;;
67597;SDS011;62026;39.230;9.122;2023-02-28T16:56:40;5.82;;;3.85;;
67597;SDS011;62026;39.230;9.122;2023-02-28T16:59:11;6.93;;;3.10;;
67597;SDS011;62026;39.230;9.122;2023-02-28T17:01:40;4.22;;;2.95;;
67597;SDS011;62026;39.230;9.122;2023-02-28T17:04:08;5.10;;;2.75;;
67597;SDS011;62026;39.230;9.122;2023-02-28T17:06:36;5.38;;;2.22;;
67597;SDS011;62026;39.230;9.122;2023-02-28T17:09:03;5.35;;;2.78;;
67597;SDS011;62026;39.230;9.122;2023-02-28T17:11:29;4.20;;;2.50;;
67597;SDS011;62026;39.230;9.122;2023-02-28T17:13:55;5.57;;;2.90;;
67597;SDS011;62026;39.230;9.122;2023-02-28T17:16:28;6.15;;;3.15;;
67597;SDS011;62026;39.230;9.122;2023-02-28T17:19:01;8.27;;;3.88;;
67597;SDS011;62026;39.230;9.122;2023-02-28T17:21:31;7.90;;;4.07;;
67597;SDS011;62026;39.230;9.122;2023-02-28T17:23:59;9.32;;;3.55;;
67597;SDS011;62026;39.230;9.122;2023-02-28T17:26:26;7.07;;;4.68;;
67597;SDS011;62026;39.230;9.122;2023-02-28T17:28:53;9.30;;;5.15;;
67597;SDS011;62026;39.230;9.122;2023-02-28T17:31:22;7.80;;;4.93;;
67597;SDS011;62026;39.230;9.122;2023-02-28T17:33:50;6.00;;;3.67;;
67597;SDS011;62026;39.230;9.122;2023-02-28T17:36:21;8.88;;;4.70;;
67597;SDS011;62026;39.230;9.122;2023-02-28T17:38:51;7.15;;;4.70;;
67597;SDS011;62026;39.230;9.122;2023-02-28T17:41:18;9.82;;;5.45;;
67597;SDS011;62026;39.230;9.122;2023-02-28T17:43:44;9.40;;;5.60;;
67597;SDS011;62026;39.230;9.122;2023-02-28T17:46:18;9.60;;;5.32;;
67597;SDS011;62026;39.230;9.122;2023-02-28T17:48:47;13.43;;;8.25;;
67597;SDS011;62026;39.230;9.122;2023-02-28T17:51:18;13.82;;;6.68;;
67597;SDS011;62026;39.230;9.122;2023-02-28T17:53:46;17.42;;;7.72;;
67597;SDS011;62026;39.230;9.122;2023-02-28T17:56:13;17.42;;;9.10;;
67597;SDS011;62026;39.230;9.122;2023-02-28T17:58:44;20.15;;;10.55;;
67597;SDS011;62026;39.230;9.122;2023-02-28T18:01:10;18.50;;;10.98;;
67597;SDS011;62026;39.230;9.122;2023-02-28T18:03:37;20.40;;;11.75;;
67597;SDS011;62026;39.230;9.122;2023-02-28T18:06:04;20.92;;;11.55;;
67597;SDS011;62026;39.230;9.122;2023-02-28T18:08:31;18.52;;;11.15;;
67597;SDS011;62026;39.230;9.122;2023-02-28T18:11:00;18.23;;;9.68;;
67597;SDS011;62026;39.230;9.122;2023-02-28T18:13:26;13.85;;;9.15;;
67597;SDS011;62026;39.230;9.122;2023-02-28T18:15:55;14.95;;;9.10;;
67597;SDS011;62026;39.230;9.122;2023-02-28T18:18:21;15.98;;;8.82;;
67597;SDS011;62026;39.230;9.122;2023-02-28T18:20:47;13.90;;;7.97;;
67597;SDS011;62026;39.230;9.122;2023-02-28T18:23:15;11.98;;;7.35;;
67597;SDS011;62026;39.230;9.122;2023-02-28T18:25:42;10.98;;;5.95;;
67597;SDS011;62026;39.230;9.122;2023-02-28T18:28:08;12.05;;;6.03;;
67597;SDS011;62026;39.230;9.122;2023-02-28T18:30:35;12.00;;;6.78;;
67597;SDS011;62026;39.230;9.122;2023-02-28T18:33:02;10.38;;;5.65;;